Brkston, Minnesota
Current Conditions -  °F | °C
As of 3:16 AM on Wednesday 26 Nov 2014 (Local Time) from KCOQ Reporting Station
Overcast Overcast  
Wind Chill: 19°   Ceiling: 6000
Heat Index: 19°   Visibility: 10mi
Dew Point: 12°   Wind: 0mph
Humidity: 74%   Direction: NA
Pressure: 30.06"   Gusts: NA
Location:  46.8211°N, 92.6871°W
Report Text: KCOQ 260916Z AUTO 00000KT 10SM OVC060 M07/M11 A3006 RMK AO2
Loading
Personal Weather Stations






























Interactive Weather Map New forecast layout! Learn more

10-Day Weather Forecast

Advertisements
Track Severe Weather on mobile